Torrington, WY

12:08 PM MDT on March 27, 2017 (GMT -0600)
Torrington Municipal | | Change Station

Elev 4206 ft 42.06 °N, 104.15 °W | Updated 15 minutes ago

Scattered Clouds
Scattered Clouds
58 °F
Feels Like 58 °F
N
17
Wind Variable Wind from West
Gusts 26 mph

Today
High -- | Low -- °F
--% Chance of Precip.
Yesterday
High -- | Low -- °F
Precip. -- in
Pressure 29.84 in
Visibility 10.0 miles
Clouds Scattered Clouds 10000 ft
Dew Point 23 °F
Humidity 26%
Rainfall 0.00 in
Snow Depth Not available.
6:47 AM 7:17 PM
Waning Crescent, 0% visible
METAR KTOR 271753Z AUTO 27015G23KT 10SM SCT100 14/M05 A2985 RMK AO2 PK WND 25030/1700 SLP105 I6001 T01441050 10156 21044 58013
Pressure 29.84 in
Visibility 10.0 miles
Clouds Scattered Clouds 10000 ft
Dew Point 23 °F
Humidity 26%
Rainfall 0.00 in
Snow Depth Not available.
6:47 AM 7:17 PM
Waning Crescent, 0% visible
METAR KTOR 271753Z AUTO 27015G23KT 10SM SCT100 14/M05 A2985 RMK AO2 PK WND 25030/1700 SLP105 I6001 T01441050 10156 21044 58013

Get Severe Weather Alerts

Thanks for signing up!

Be on the lookout for a verification email in your inbox.

You'll start receiving the daily forecast at 8 AM.

×

10-Day Weather Forecast

Almanac

Astronomy

Mar. 27, 2017 Rise Set
Actual Time
Civil Twilight
Nautical Twilight
Astronomical Twilight
Moon
Length of Visible Light
Length of Day
Tomorrow will be .
, % of the Moon is Illuminated

Today's Extremes

State Highs State Lows

Community

WunderPhotos

Upload Photos

1,962,540 photos uploaded!

WunderBlog® & News

Nearby

Air Quality

  Air Quality AQ Index Pollutant
Not available.

Snow Depth

Station Depth Elevation

Earthquake Activity

City Distance Mag. Time & Date
Minimum magnitude displayed is 2.5.

Earthquake Activity

City Distance Mag. Time & Date
Minimum magnitude displayed is 2.5.

Coastal Water Temperatures

Place Temperature

Stations

Nearby Weather Stations

Station Location Temp. Windchill Dew Point Humidity Wind Precip. Elev Updated Type
                   

Watches & Warnings

There are currently no watches in effect.